Caribbean Princess — ZCDG8 — position and weather

sailwx.info

Track history (hours):
 
Tides and Currents Weather Stations Pressure Air Temp Water Temp Dewpoint Dewpoint Depression Visibility Wind Speed Wind Dir Waves Ship Positions

Caribbean Princess

Operator: Princess Cruises

Last reported at 2015-Jan-27 00:33 UTC. Time now 2015-Jan-27 05:48 UTC.
Position N 25°46' W 079°35'.

Type: Passenger vessel. MMSI: 310423000.

Date/timePositionNaut miles runAvg speedWind from/ knotsBaromVisibWave heightAir tempDewpointWater temp
2015-Jan-27 00:33N 25°46' W 079°35'1515.1
2015-Jan-26 23:34N 25°58' W 079°46'1615.6
2015-Jan-26 22:34N 26°05' W 080°01'6 5.2
2015-Jan-26 21:31N 26°06' W 080°07'0 0.0
2015-Jan-26 20:24N 26°06' W 080°07'0 0.0
2015-Jan-26 19:34N 26°06' W 080°07'0 0.0
2015-Jan-26 18:27N 26°06' W 080°07'0 0.0
2015-Jan-26 17:27N 26°06' W 080°07'0 0.0
2015-Jan-26 16:27N 26°06' W 080°07'0 0.0
2015-Jan-26 15:33N 26°06' W 080°07'0 0.0
2015-Jan-26 14:33N 26°06' W 080°07'0 0.0
2015-Jan-26 13:31N 26°06' W 080°07'0 0.0
2015-Jan-26 12:27N 26°06' W 080°07'0 0.0
2015-Jan-26 11:33N 26°06' W 080°07'8 7.7
2015-Jan-26 10:33N 26°05' W 079°59'1414.4
2015-Jan-26 09:33N 26°02' W 079°43'1312.7
2015-Jan-26 08:34N 25°50' W 079°37'  
2015-Jan-22 23:34N 26°12' W 079°30'2019.7
2015-Jan-22 22:33N 26°08' W 079°52'1413.6
2015-Jan-22 21:33N 26°06' W 080°07'1 0.6
2015-Jan-22 20:27N 26°06' W 080°07'0 0.0
2015-Jan-22 19:32N 26°06' W 080°07'0 0.0
2015-Jan-22 18:33N 26°06' W 080°07'0 0.0
2015-Jan-22 17:26N 26°06' W 080°07'0 0.0
2015-Jan-22 16:31N 26°06' W 080°07'0 0.0
2015-Jan-22 15:30N 26°06' W 080°07'0 0.0
2015-Jan-22 14:25N 26°06' W 080°07'0 0.0
2015-Jan-22 13:33N 26°06' W 080°07'0 0.0
2015-Jan-22 12:26N 26°06' W 080°07'0 0.0
2015-Jan-22 11:31N 26°06' W 080°07'7 6.8
2015-Jan-22 10:33N 26°06' W 079°60'1515.3
2015-Jan-22 09:33N 26°00' W 079°44'1817.7
2015-Jan-22 08:33N 25°44' W 079°37'  
2015-Jan-18 00:33N 25°49' W 079°35'1615.6
2015-Jan-17 23:33N 25°60' W 079°48'1615.6
2015-Jan-17 22:33N 26°04' W 080°04'3 2.5
2015-Jan-17 21:27N 26°05' W 080°07'0 0.0
2015-Jan-17 20:31N 26°05' W 080°07'0 0.0
2015-Jan-17 19:31N 26°05' W 080°07'0 0.0
2015-Jan-17 18:30N 26°05' W 080°07'0 0.0
2015-Jan-17 17:24N 26°05' W 080°07'0 0.0
2015-Jan-17 16:31N 26°05' W 080°07'0 0.0
2015-Jan-17 15:33N 26°05' W 080°07'0 0.0
2015-Jan-17 14:32N 26°05' W 080°07'0 0.0
2015-Jan-17 13:32N 26°05' W 080°07'0 0.0
2015-Jan-17 12:31N 26°05' W 080°07'1 1.5
2015-Jan-17 11:33N 26°06' W 080°05'1211.7
2015-Jan-17 10:33N 26°07' W 079°53'1110.7
2015-Jan-17 09:33N 26°10' W 079°41'1111.3
2015-Jan-17 08:33N 26°13' W 079°29'1111.2
2015-Jan-17 07:33N 26°15' W 079°17'  
Track history (hours):
 
Tides and Currents Weather Stations Pressure Air Temp Water Temp Dewpoint Dewpoint Depression Visibility Wind Speed Wind Dir Waves Ship Positions

Caribbean Princess

Operator: Princess Cruises

Last reported at 2015-Jan-27 00:33 UTC. Time now 2015-Jan-27 05:48 UTC.
Position N 25°46' W 079°35'.

Type: Passenger vessel. MMSI: 310423000.

Date/timePositionNaut miles runAvg speedWind from/ knotsBaromVisibWave heightAir tempDewpointWater temp
2015-Jan-27 00:33N 25°46' W 079°35'1515.1
2015-Jan-26 23:34N 25°58' W 079°46'1615.6
2015-Jan-26 22:34N 26°05' W 080°01'6 5.2
2015-Jan-26 21:31N 26°06' W 080°07'0 0.0
2015-Jan-26 20:24N 26°06' W 080°07'0 0.0
2015-Jan-26 19:34N 26°06' W 080°07'0 0.0
2015-Jan-26 18:27N 26°06' W 080°07'0 0.0
2015-Jan-26 17:27N 26°06' W 080°07'0 0.0
2015-Jan-26 16:27N 26°06' W 080°07'0 0.0
2015-Jan-26 15:33N 26°06' W 080°07'0 0.0
2015-Jan-26 14:33N 26°06' W 080°07'0 0.0
2015-Jan-26 13:31N 26°06' W 080°07'0 0.0
2015-Jan-26 12:27N 26°06' W 080°07'0 0.0
2015-Jan-26 11:33N 26°06' W 080°07'8 7.7
2015-Jan-26 10:33N 26°05' W 079°59'1414.4
2015-Jan-26 09:33N 26°02' W 079°43'1312.7
2015-Jan-26 08:34N 25°50' W 079°37'  
2015-Jan-22 23:34N 26°12' W 079°30'2019.7
2015-Jan-22 22:33N 26°08' W 079°52'1413.6
2015-Jan-22 21:33N 26°06' W 080°07'1 0.6
2015-Jan-22 20:27N 26°06' W 080°07'0 0.0
2015-Jan-22 19:32N 26°06' W 080°07'0 0.0
2015-Jan-22 18:33N 26°06' W 080°07'0 0.0
2015-Jan-22 17:26N 26°06' W 080°07'0 0.0
2015-Jan-22 16:31N 26°06' W 080°07'0 0.0
2015-Jan-22 15:30N 26°06' W 080°07'0 0.0
2015-Jan-22 14:25N 26°06' W 080°07'0 0.0
2015-Jan-22 13:33N 26°06' W 080°07'0 0.0
2015-Jan-22 12:26N 26°06' W 080°07'0 0.0
2015-Jan-22 11:31N 26°06' W 080°07'7 6.8
2015-Jan-22 10:33N 26°06' W 079°60'1515.3
2015-Jan-22 09:33N 26°00' W 079°44'1817.7
2015-Jan-22 08:33N 25°44' W 079°37'  
2015-Jan-18 00:33N 25°49' W 079°35'1615.6
2015-Jan-17 23:33N 25°60' W 079°48'1615.6
2015-Jan-17 22:33N 26°04' W 080°04'3 2.5
2015-Jan-17 21:27N 26°05' W 080°07'0 0.0
2015-Jan-17 20:31N 26°05' W 080°07'0 0.0
2015-Jan-17 19:31N 26°05' W 080°07'0 0.0
2015-Jan-17 18:30N 26°05' W 080°07'0 0.0
2015-Jan-17 17:24N 26°05' W 080°07'0 0.0
2015-Jan-17 16:31N 26°05' W 080°07'0 0.0
2015-Jan-17 15:33N 26°05' W 080°07'0 0.0
2015-Jan-17 14:32N 26°05' W 080°07'0 0.0
2015-Jan-17 13:32N 26°05' W 080°07'0 0.0
2015-Jan-17 12:31N 26°05' W 080°07'1 1.5
2015-Jan-17 11:33N 26°06' W 080°05'1211.7
2015-Jan-17 10:33N 26°07' W 079°53'1110.7
2015-Jan-17 09:33N 26°10' W 079°41'1111.3
2015-Jan-17 08:33N 26°13' W 079°29'1111.2
2015-Jan-17 07:33N 26°15' W 079°17'  

Dump ship's entire track history